Time;durP1;ratioP1;P1;durP2;ratioP2;P2;SDS_P1;SDS_P2;PMS_P1;PMS_P2;Temp;Humidity;BMP_temperature;BMP_pressure;BME280_temperature;BME280_humidity;BME280_pressure;Samples;Min_cycle;Max_cycle;Signal;HPM_P1;HPM_P2
2021/05/01 00:00:09;;;;;;;19.10;9.70;;;7.00;82.80;;;;;;5111640;28;20127;-62
2021/05/01 00:02:34;;;;;;;16.23;10.75;;;7.00;82.60;;;;;;5109867;28;20031;-62
2021/05/01 00:05:00;;;;;;;19.25;10.70;;;7.00;82.70;;;;;;5105642;28;20026;-62
2021/05/01 00:07:25;;;;;;;22.77;10.82;;;7.00;82.60;;;;;;5110943;28;20027;-62
2021/05/01 00:09:51;;;;;;;17.30;10.73;;;7.10;82.40;;;;;;5110433;28;20095;-62
2021/05/01 00:12:17;;;;;;;19.70;10.57;;;7.00;82.30;;;;;;5110599;28;20015;-62
2021/05/01 00:14:42;;;;;;;22.00;11.05;;;7.00;82.30;;;;;;5091798;28;20024;-62
2021/05/01 00:17:08;;;;;;;17.23;10.10;;;7.00;82.50;;;;;;5111129;28;20018;-62
2021/05/01 00:19:34;;;;;;;18.70;10.40;;;7.00;82.30;;;;;;5108363;28;20028;-62
2021/05/01 00:21:59;;;;;;;20.95;10.50;;;7.00;82.50;;;;;;5111228;28;20026;-62
2021/05/01 00:24:25;;;;;;;19.95;11.13;;;7.00;82.50;;;;;;5092389;28;20104;-62
2021/05/01 00:26:50;;;;;;;17.05;10.23;;;7.00;82.30;;;;;;5109672;28;20031;-62
2021/05/01 00:29:16;;;;;;;16.75;9.93;;;7.00;82.50;;;;;;5110297;28;20441;-62
2021/05/01 00:31:42;;;;;;;19.95;10.55;;;7.00;82.70;;;;;;5109874;28;20024;-62
2021/05/01 00:34:07;;;;;;;19.85;10.73;;;7.00;82.70;;;;;;5092548;28;20442;-62
2021/05/01 00:36:33;;;;;;;19.67;10.90;;;6.90;82.80;;;;;;5110348;28;20027;-62
2021/05/01 00:38:58;;;;;;;17.27;10.80;;;6.90;82.70;;;;;;5091809;28;20020;-62
2021/05/01 00:41:24;;;;;;;22.60;11.65;;;6.90;82.70;;;;;;5091787;28;20023;-62
2021/05/01 00:43:50;;;;;;;21.80;11.20;;;7.00;82.70;;;;;;5091229;28;20036;-62
2021/05/01 00:46:15;;;;;;;16.50;10.70;;;6.80;82.80;;;;;;5110624;28;20451;-62
2021/05/01 00:48:41;;;;;;;19.58;10.95;;;6.80;83.00;;;;;;5108186;28;20107;-61
2021/05/01 00:51:08;;;;;;;18.60;11.95;;;6.70;83.00;;;;;;5109747;28;20023;-62
2021/05/01 00:53:34;;;;;;;18.15;11.07;;;6.80;83.10;;;;;;5110377;28;20031;-62
2021/05/01 00:56:00;;;;;;;26.00;12.23;;;6.70;82.90;;;;;;5110759;28;20128;-62
2021/05/01 00:58:25;;;;;;;20.83;12.38;;;6.60;83.10;;;;;;5109655;28;20072;-62
2021/05/01 01:03:37;;;;;;;18.90;12.13;;;6.50;83.30;;;;;;5109011;28;20050;-62
2021/05/01 01:06:03;;;;;;;23.88;12.82;;;6.60;83.30;;;;;;5109939;28;20077;-62
2021/05/01 01:08:29;;;;;;;20.10;12.38;;;6.50;83.60;;;;;;5109886;28;20028;-62
2021/05/01 01:10:55;;;;;;;21.13;12.13;;;6.40;83.70;;;;;;5109635;28;20472;-62
2021/05/01 01:13:21;;;;;;;23.23;12.93;;;6.40;83.80;;;;;;5074450;28;20039;-62
2021/05/01 01:15:46;;;;;;;29.67;13.60;;;6.40;83.80;;;;;;5091321;28;20047;-62
2021/05/01 01:18:12;;;;;;;21.63;13.63;;;6.40;83.80;;;;;;5110522;28;20027;-62
2021/05/01 01:20:37;;;;;;;23.65;13.82;;;6.30;83.80;;;;;;5088473;28;20471;-62
2021/05/01 01:23:03;;;;;;;25.38;13.85;;;6.30;84.00;;;;;;5110025;28;20036;-62
2021/05/01 01:25:29;;;;;;;22.67;13.88;;;6.30;83.90;;;;;;5109600;28;20040;-62
2021/05/01 01:27:54;;;;;;;21.38;14.27;;;6.30;84.00;;;;;;5091101;28;20032;-62
2021/05/01 01:30:25;;;;;;;22.20;14.20;;;6.10;84.10;;;;;;5074685;28;20446;-62
2021/05/01 01:32:51;;;;;;;24.50;14.57;;;6.10;84.10;;;;;;5109353;28;20454;-62
2021/05/01 01:35:17;;;;;;;26.42;16.05;;;6.10;84.30;;;;;;5109560;28;20030;-62
2021/05/01 01:37:43;;;;;;;23.98;14.65;;;6.10;84.40;;;;;;5109216;28;20027;-62
2021/05/01 01:40:10;;;;;;;28.50;15.73;;;6.10;84.40;;;;;;5075048;28;20442;-61
2021/05/01 01:42:36;;;;;;;31.30;16.83;;;6.00;84.70;;;;;;5108280;28;20103;-62
2021/05/01 01:45:03;;;;;;;29.67;15.82;;;6.00;84.70;;;;;;5109663;28;20499;-62
2021/05/01 01:47:29;;;;;;;26.48;17.13;;;6.00;84.80;;;;;;5109448;28;20024;-62
2021/05/01 01:49:54;;;;;;;29.48;16.88;;;6.00;84.90;;;;;;5106737;28;20382;-62
2021/05/01 01:52:20;;;;;;;33.78;18.13;;;5.90;84.90;;;;;;5091283;28;20027;-62
2021/05/01 01:54:45;;;;;;;30.67;17.45;;;5.90;84.90;;;;;;5090708;28;20072;-62
2021/05/01 01:57:11;;;;;;;34.13;17.85;;;5.90;85.10;;;;;;5109479;28;20353;-61
2021/05/01 01:59:37;;;;;;;28.25;18.90;;;5.90;85.20;;;;;;5091916;28;20028;-62
2021/05/01 02:02:02;;;;;;;31.55;18.92;;;5.70;85.30;;;;;;5095795;28;20020;-62
2021/05/01 02:04:28;;;;;;;35.20;20.60;;;5.70;85.50;;;;;;5077647;28;20016;-62
2021/05/01 02:06:53;;;;;;;33.45;20.10;;;5.70;85.40;;;;;;5094907;28;20020;-62
2021/05/01 02:09:19;;;;;;;29.75;19.80;;;5.70;85.80;;;;;;5113279;28;20028;-62
2021/05/01 02:11:45;;;;;;;44.53;21.27;;;5.70;85.80;;;;;;5112700;28;20024;-62
2021/05/01 02:14:10;;;;;;;36.08;20.55;;;5.70;85.70;;;;;;5113195;28;20043;-61
2021/05/01 02:16:36;;;;;;;36.50;22.55;;;5.70;85.60;;;;;;5112593;28;20055;-61
2021/05/01 02:19:02;;;;;;;32.53;21.25;;;5.70;85.50;;;;;;5111001;28;20164;-62
2021/05/01 02:21:27;;;;;;;33.83;20.58;;;5.70;85.40;;;;;;5078123;28;20362;-61
2021/05/01 02:23:53;;;;;;;36.95;21.15;;;5.70;85.50;;;;;;5112236;28;20028;-61
2021/05/01 02:26:18;;;;;;;44.20;21.73;;;5.70;85.70;;;;;;5112655;28;20039;-61
2021/05/01 02:28:44;;;;;;;35.05;21.58;;;5.60;86.30;;;;;;5112836;28;20406;-62
2021/05/01 02:31:10;;;;;;;38.90;20.65;;;5.70;86.40;;;;;;5113284;28;20028;-62
2021/05/01 02:33:36;;;;;;;32.08;20.05;;;5.70;86.00;;;;;;5093468;28;20023;-61
2021/05/01 02:36:02;;;;;;;35.50;20.42;;;5.60;86.00;;;;;;5113274;28;20024;-62
2021/05/01 02:38:27;;;;;;;34.17;20.80;;;5.70;86.00;;;;;;5094373;28;20020;-62
2021/05/01 02:40:53;;;;;;;38.97;19.77;;;5.70;85.90;;;;;;5111962;28;20019;-61
2021/05/01 02:43:18;;;;;;;33.67;21.48;;;5.70;85.90;;;;;;5112708;28;20145;-61
2021/05/01 02:45:44;;;;;;;36.58;21.55;;;5.60;86.10;;;;;;5112142;28;20019;-61
2021/05/01 02:48:10;;;;;;;38.13;21.50;;;5.60;85.80;;;;;;5112602;28;20024;-62
2021/05/01 02:50:36;;;;;;;36.20;21.05;;;5.60;86.00;;;;;;5109776;28;20084;-61
2021/05/01 02:53:01;;;;;;;40.17;22.48;;;5.60;85.80;;;;;;5112869;28;20023;-61
2021/05/01 02:55:27;;;;;;;35.72;20.38;;;5.60;85.80;;;;;;5111804;28;20094;-61
2021/05/01 02:57:53;;;;;;;35.13;21.38;;;5.60;85.90;;;;;;5093913;28;20022;-61
2021/05/01 03:00:20;;;;;;;31.60;20.52;;;5.60;85.80;;;;;;5112332;28;20095;-62
2021/05/01 03:02:46;;;;;;;32.45;20.98;;;5.60;85.90;;;;;;5111499;28;20031;-61
2021/05/01 03:05:12;;;;;;;34.53;21.10;;;5.50;86.30;;;;;;5112519;28;20089;-61
2021/05/01 03:07:38;;;;;;;34.45;21.08;;;5.50;86.20;;;;;;5093553;28;20028;-61
2021/05/01 03:10:05;;;;;;;40.50;23.38;;;5.50;86.30;;;;;;5111959;28;20019;-62
2021/05/01 03:12:30;;;;;;;40.35;22.60;;;5.50;86.10;;;;;;5111794;28;20028;-62
2021/05/01 03:14:56;;;;;;;37.40;23.15;;;5.40;86.50;;;;;;5111624;28;20027;-62
2021/05/01 03:17:22;;;;;;;35.97;23.45;;;5.30;86.80;;;;;;5093615;28;20023;-62
2021/05/01 03:19:47;;;;;;;42.55;24.65;;;5.40;86.60;;;;;;5109220;28;20489;-62
2021/05/01 03:22:13;;;;;;;40.97;25.50;;;5.30;86.40;;;;;;5112404;28;20020;-62
2021/05/01 03:24:39;;;;;;;49.28;26.58;;;5.30;86.50;;;;;;5110479;28;20027;-61
2021/05/01 03:27:05;;;;;;;45.85;25.25;;;5.30;86.40;;;;;;5093850;28;20050;-62
2021/05/01 03:29:31;;;;;;;40.92;25.83;;;5.30;86.80;;;;;;5093675;28;20059;-61
2021/05/01 03:31:56;;;;;;;44.30;27.50;;;5.20;86.90;;;;;;5110793;28;20027;-62
2021/05/01 03:34:22;;;;;;;41.33;25.90;;;5.20;87.10;;;;;;5111776;28;20080;-61
2021/05/01 03:36:48;;;;;;;51.85;27.83;;;5.20;86.80;;;;;;5076074;28;20019;-61
2021/05/01 03:39:15;;;;;;;49.53;26.27;;;5.20;86.80;;;;;;5111721;28;20016;-61
2021/05/01 03:41:41;;;;;;;45.35;25.38;;;5.20;86.70;;;;;;5110731;28;20359;-61
2021/05/01 03:44:07;;;;;;;45.22;26.02;;;5.10;87.10;;;;;;5111771;28;20023;-62
2021/05/01 03:46:33;;;;;;;41.58;25.63;;;5.10;86.80;;;;;;5111328;28;20073;-61
2021/05/01 03:48:58;;;;;;;40.33;24.95;;;5.10;87.20;;;;;;5090730;28;20085;-62
2021/05/01 03:51:24;;;;;;;40.10;24.85;;;5.10;87.30;;;;;;5111488;28;20022;-62
2021/05/01 03:53:49;;;;;;;47.72;26.15;;;5.10;87.00;;;;;;5111082;28;20327;-62
2021/05/01 03:56:15;;;;;;;44.63;24.73;;;5.10;87.10;;;;;;5111126;28;20106;-62
2021/05/01 03:58:40;;;;;;;47.28;25.00;;;5.10;87.20;;;;;;5110289;28;20519;-62
2021/05/01 04:01:06;;;;;;;40.85;24.13;;;5.10;87.20;;;;;;5111402;28;20024;-61
2021/05/01 04:03:32;;;;;;;47.88;26.15;;;5.10;87.30;;;;;;5110376;28;20054;-61
2021/05/01 04:05:58;;;;;;;43.20;25.42;;;5.10;87.10;;;;;;5092550;28;20023;-62
2021/05/01 04:08:24;;;;;;;40.00;25.40;;;5.10;87.40;;;;;;5111000;28;20020;-62
2021/05/01 04:10:49;;;;;;;42.05;26.15;;;5.10;87.20;;;;;;5110133;28;20050;-61
2021/05/01 04:13:15;;;;;;;40.58;24.40;;;5.10;87.20;;;;;;5111024;28;20097;-62
2021/05/01 04:15:41;;;;;;;41.83;25.42;;;5.10;87.10;;;;;;5110102;28;20049;-62
2021/05/01 04:18:14;;;;;;;41.72;24.02;;;5.20;87.30;;;;;;5111051;28;20019;-62
2021/05/01 04:20:40;;;;;;;41.90;25.23;;;5.10;87.10;;;;;;5108068;28;20028;-62
2021/05/01 04:23:06;;;;;;;42.58;24.63;;;5.10;87.00;;;;;;5110677;28;20595;-61
2021/05/01 04:25:31;;;;;;;39.30;24.23;;;5.10;87.60;;;;;;5110261;28;20032;-61
2021/05/01 04:27:57;;;;;;;46.65;22.48;;;5.10;87.40;;;;;;5110368;28;20019;-61
2021/05/01 04:30:22;;;;;;;44.38;24.98;;;5.20;87.10;;;;;;5092652;28;20350;-61
2021/05/01 04:32:50;;;;;;;38.53;23.65;;;5.30;86.90;;;;;;5109806;28;20457;-61
2021/05/01 04:35:15;;;;;;;39.22;22.95;;;5.30;86.60;;;;;;5110760;28;20051;-61
2021/05/01 04:37:41;;;;;;;40.53;22.38;;;5.40;86.50;;;;;;5109904;28;20051;-61
2021/05/01 04:40:07;;;;;;;33.08;21.35;;;5.50;86.30;;;;;;5110540;28;20098;-61
2021/05/01 04:42:35;;;;;;;37.50;21.23;;;5.70;85.70;;;;;;5110787;28;20119;-62
2021/05/01 04:45:01;;;;;;;37.35;20.20;;;6.00;85.00;;;;;;5110517;28;20358;-62
2021/05/01 04:47:26;;;;;;;33.15;19.52;;;6.20;84.30;;;;;;5109970;28;20020;-62
2021/05/01 04:49:52;;;;;;;31.92;18.90;;;6.50;83.60;;;;;;5089648;28;20035;-61
2021/05/01 04:52:17;;;;;;;30.50;18.27;;;6.80;82.50;;;;;;5110692;28;20118;-62
2021/05/01 04:54:43;;;;;;;22.92;16.90;;;7.10;81.80;;;;;;5108953;28;20020;-62
2021/05/01 04:57:09;;;;;;;27.25;16.27;;;7.50;80.80;;;;;;5110510;28;20032;-62
2021/05/01 04:59:34;;;;;;;28.77;15.20;;;8.00;79.30;;;;;;5109618;28;20063;-62
2021/05/01 05:02:00;;;;;;;29.40;15.60;;;8.60;76.80;;;;;;5099867;28;20035;-62
2021/05/01 05:04:26;;;;;;;29.70;15.43;;;8.90;75.70;;;;;;5120075;27;20071;-62
2021/05/01 05:06:51;;;;;;;27.45;15.20;;;9.10;75.40;;;;;;5112967;27;20073;-62
2021/05/01 05:09:17;;;;;;;20.38;13.70;;;9.50;73.80;;;;;;5110088;28;20161;-62
2021/05/01 05:11:42;;;;;;;21.42;13.48;;;9.90;73.10;;;;;;5090903;28;20485;-62
2021/05/01 05:14:08;;;;;;;25.85;14.10;;;10.40;72.20;;;;;;5110106;28;20125;-62
2021/05/01 05:16:33;;;;;;;23.42;13.63;;;10.70;70.80;;;;;;5074672;28;20023;-62
2021/05/01 05:18:59;;;;;;;18.60;12.40;;;11.00;70.00;;;;;;5108154;28;20909;-62
2021/05/01 05:21:25;;;;;;;21.60;11.95;;;11.10;69.20;;;;;;5120566;28;20031;-62
2021/05/01 05:23:50;;;;;;;19.33;11.82;;;11.50;68.60;;;;;;5099322;28;20027;-62
2021/05/01 05:26:16;;;;;;;24.38;12.07;;;12.00;66.00;;;;;;5118319;28;20099;-62
2021/05/01 05:28:42;;;;;;;17.20;10.20;;;12.90;63.90;;;;;;5090623;28;20020;-62
2021/05/01 05:31:07;;;;;;;18.90;10.13;;;13.70;62.10;;;;;;5110050;28;20016;-62
2021/05/01 05:33:33;;;;;;;17.50;10.45;;;14.00;61.70;;;;;;5119977;27;20035;-62
2021/05/01 05:35:59;;;;;;;20.35;9.90;;;14.40;58.70;;;;;;5133740;27;20175;-62
2021/05/01 05:38:25;;;;;;;13.82;9.43;;;14.50;59.20;;;;;;5134000;27;20473;-62
2021/05/01 05:40:51;;;;;;;16.23;9.65;;;14.80;58.80;;;;;;5115832;27;20110;-62
2021/05/01 05:43:17;;;;;;;18.67;9.38;;;15.20;57.40;;;;;;5134946;27;20038;-62
2021/05/01 05:45:45;;;;;;;16.08;9.10;;;15.80;54.60;;;;;;5133216;27;20023;-62
2021/05/01 05:48:10;;;;;;;15.75;8.20;;;15.70;55.40;;;;;;5134938;27;20051;-63
2021/05/01 05:50:36;;;;;;;18.02;8.43;;;15.10;56.30;;;;;;5124369;27;20553;-63
2021/05/01 05:53:02;;;;;;;14.77;8.82;;;14.30;58.20;;;;;;5123151;27;20031;-63
2021/05/01 05:55:27;;;;;;;18.58;10.18;;;14.00;60.40;;;;;;5122601;27;20019;-63
2021/05/01 05:57:54;;;;;;;16.52;8.75;;;14.20;58.60;;;;;;5088339;27;20012;-63
2021/05/01 06:00:20;;;;;;;17.42;9.05;;;14.40;60.20;;;;;;5097512;28;20031;-63
2021/05/01 06:02:46;;;;;;;18.88;8.75;;;14.70;59.30;;;;;;5107242;27;20024;-63
2021/05/01 06:05:35;;;;;;;18.88;8.82;;;15.60;56.50;;;;;;5084729;28;20461;-63
2021/05/01 06:08:03;;;;;;;13.60;7.32;;;16.70;50.70;;;;;;5102766;28;20008;-63
2021/05/01 06:10:29;;;;;;;14.80;8.05;;;16.70;54.90;;;;;;5100806;28;20031;-63
2021/05/01 06:12:55;;;;;;;10.32;6.68;;;17.30;52.40;;;;;;5066488;28;20511;-63
2021/05/01 06:15:21;;;;;;;13.45;7.05;;;17.60;52.30;;;;;;5083574;28;20031;-64
2021/05/01 06:17:48;;;;;;;12.40;7.35;;;17.80;51.30;;;;;;5081928;28;20022;-64
2021/05/01 06:20:14;;;;;;;13.50;7.60;;;18.00;48.70;;;;;;5099984;28;20419;-63
2021/05/01 06:22:40;;;;;;;10.38;7.10;;;17.90;49.20;;;;;;5082682;28;20028;-64
2021/05/01 06:25:07;;;;;;;10.35;6.18;;;17.40;48.10;;;;;;5085025;28;20016;-63
2021/05/01 06:27:33;;;;;;;13.60;6.28;;;17.60;51.00;;;;;;5102124;27;20470;-64
2021/05/01 06:29:58;;;;;;;10.85;6.38;;;17.60;48.20;;;;;;5103073;27;20051;-64
2021/05/01 06:32:24;;;;;;;10.45;6.45;;;18.00;49.30;;;;;;5105333;27;20050;-64
2021/05/01 06:34:54;;;;;;;14.98;7.03;;;17.90;50.10;;;;;;5115872;27;20032;-64
2021/05/01 06:37:23;;;;;;;14.65;6.22;;;18.40;48.10;;;;;;5114369;27;20062;-66
2021/05/01 06:39:50;;;;;;;143.15;85.90;;;18.60;45.80;;;;;;5098509;27;20015;-66
2021/05/01 06:42:23;;;;;;;336.85;177.80;;;18.30;47.00;;;;;;5121484;27;20089;-68
2021/05/01 06:45:04;;;;;;;26.45;13.60;;;18.80;45.60;;;;;;5080776;28;20024;-65
2021/05/01 06:47:31;;;;;;;9.10;5.60;;;19.30;45.10;;;;;;5119141;27;20877;-65
2021/05/01 06:50:04;;;;;;;9.48;5.57;;;19.30;44.80;;;;;;5118672;27;20019;-62
2021/05/01 06:52:30;;;;;;;;;;;19.20;44.60;;;;;;5100091;27;20023;-64
2021/05/01 06:55:00;;;;;;;8.52;4.68;;;19.30;44.00;;;;;;5127694;27;19997;-64
2021/05/01 06:57:26;;;;;;;10.88;4.80;;;19.10;46.00;;;;;;5132584;27;20027;-64
2021/05/01 06:59:54;;;;;;;8.00;4.50;;;18.70;46.90;;;;;;5113128;27;20031;-64
2021/05/01 07:02:31;;;;;;;10.32;4.75;;;19.30;45.00;;;;;;5114779;27;20404;-64
2021/05/01 07:04:58;;;;;;;7.57;3.83;;;18.80;44.80;;;;;;5127827;27;20015;-67
2021/05/01 07:07:24;;;;;;;5.88;3.22;;;18.00;46.70;;;;;;5083271;27;20023;-67
2021/05/01 07:09:50;;;;;;;5.03;3.47;;;17.40;48.70;;;;;;5121315;27;20020;-68
2021/05/01 07:12:17;;;;;;;6.95;3.50;;;17.30;49.10;;;;;;5112302;27;20077;-68
2021/05/01 07:14:43;;;;;;;9.57;4.20;;;16.50;50.20;;;;;;5110324;28;20028;-67
2021/05/01 07:17:11;;;;;;;9.23;3.67;;;16.30;52.10;;;;;;5111548;28;20427;-68
2021/05/01 07:19:36;;;;;;;9.27;3.90;;;15.80;52.40;;;;;;5090215;28;20806;-69
2021/05/01 07:22:02;;;;;;;9.38;3.50;;;15.50;54.70;;;;;;5092813;28;20080;-67
2021/05/01 07:24:27;;;;;;;12.48;5.13;;;15.90;53.30;;;;;;5110807;28;20103;-68
2021/05/01 07:26:56;;;;;;;10.85;4.57;;;16.30;53.60;;;;;;5110928;28;20027;-69
2021/05/01 07:29:24;;;;;;;9.07;3.47;;;16.40;51.90;;;;;;5075347;28;20019;-69
2021/05/01 07:31:50;;;;;;;10.13;3.97;;;16.90;52.40;;;;;;5075834;28;20088;-68
2021/05/01 07:34:20;;;;;;;8.07;4.07;;;18.80;48.50;;;;;;5111007;28;20028;-69
2021/05/01 07:36:46;;;;;;;7.75;3.30;;;19.30;44.40;;;;;;5110074;28;20030;-68
2021/05/01 07:39:12;;;;;;;8.55;3.83;;;19.30;45.70;;;;;;5075921;28;20073;-69
2021/05/01 07:41:43;;;;;;;7.95;3.97;;;17.50;49.60;;;;;;5110023;28;20027;-68
2021/05/01 07:44:08;;;;;;;8.68;3.47;;;18.00;47.90;;;;;;5110727;28;20031;-68
2021/05/01 07:46:34;;;;;;;9.88;5.05;;;17.20;50.70;;;;;;5110638;28;20096;-69
2021/05/01 07:49:00;;;;;;;9.70;4.63;;;18.60;46.50;;;;;;5090434;28;20024;-70
2021/05/01 07:51:26;;;;;;;6.53;3.33;;;18.10;48.10;;;;;;5092549;28;20438;-71
2021/05/01 07:53:52;;;;;;;9.70;4.03;;;18.70;44.60;;;;;;5075281;28;20024;-68
2021/05/01 07:56:18;;;;;;;7.95;4.03;;;18.10;46.90;;;;;;5092675;28;20069;-67
2021/05/01 07:58:43;;;;;;;9.02;3.65;;;15.80;50.20;;;;;;5090936;28;20466;-67
2021/05/01 08:01:09;;;;;;;10.95;3.60;;;16.00;51.50;;;;;;5112729;27;20371;-68
2021/05/01 08:03:35;;;;;;;7.38;3.35;;;15.80;51.00;;;;;;5118663;27;20492;-68
2021/05/01 08:06:01;;;;;;;9.05;3.95;;;14.50;53.40;;;;;;5113111;27;20045;-65
2021/05/01 08:08:27;;;;;;;562.50;336.95;;;14.00;54.70;;;;;;5091906;28;20134;-69
2021/05/01 08:10:52;;;;;;;189.70;106.38;;;16.10;51.00;;;;;;5091774;27;20094;-67
2021/05/01 08:13:18;;;;;;;14.90;8.18;;;15.50;51.20;;;;;;5110041;28;20070;-67
2021/05/01 08:15:43;;;;;;;9.15;4.63;;;16.50;48.00;;;;;;5117754;27;20035;-67
2021/05/01 08:18:09;;;;;;;8.18;3.97;;;16.90;47.30;;;;;;5119043;27;20225;-66
2021/05/01 08:20:35;;;;;;;7.40;4.10;;;17.00;48.60;;;;;;5116563;27;20011;-67
2021/05/01 08:23:01;;;;;;;5.93;3.67;;;16.40;49.80;;;;;;5102831;27;20406;-68
2021/05/01 08:25:26;;;;;;;9.38;3.40;;;16.80;48.00;;;;;;5081457;27;20461;-66
2021/05/01 08:27:53;;;;;;;7.93;3.47;;;17.20;48.00;;;;;;5101164;27;20116;-65
2021/05/01 08:30:19;;;;;;;10.52;3.58;;;17.00;48.50;;;;;;5099954;28;20052;-65
2021/05/01 08:32:45;;;;;;;13.20;6.03;;;17.30;46.80;;;;;;5101429;27;21887;-65
2021/05/01 08:35:11;;;;;;;10.60;6.63;;;17.40;47.30;;;;;;5081930;27;20455;-64
2021/05/01 08:37:37;;;;;;;12.80;4.50;;;16.70;49.10;;;;;;5129666;27;20031;-66
2021/05/01 08:40:06;;;;;;;9.13;3.38;;;15.70;49.00;;;;;;5118241;27;20378;-65
2021/05/01 08:42:32;;;;;;;11.23;3.90;;;14.90;50.40;;;;;;5074604;28;20470;-65
2021/05/01 08:45:05;;;;;;;11.43;4.20;;;14.60;52.30;;;;;;5090754;28;20054;-65
2021/05/01 08:47:34;;;;;;;8.63;3.90;;;14.30;52.60;;;;;;5109831;28;20446;-65
2021/05/01 08:50:04;;;;;;;8.68;4.15;;;14.40;52.60;;;;;;5089790;28;20024;-65
2021/05/01 08:52:30;;;;;;;4.63;3.20;;;15.90;49.20;;;;;;5109826;28;20195;-65
2021/05/01 08:54:56;;;;;;;8.15;3.90;;;16.50;47.70;;;;;;5109300;28;20078;-65
2021/05/01 08:57:26;;;;;;;8.30;4.00;;;16.90;45.40;;;;;;5091001;28;20129;-65
2021/05/01 08:59:52;;;;;;;7.78;3.90;;;17.10;45.80;;;;;;5091179;28;20020;-65
2021/05/01 09:02:18;;;;;;;6.78;3.65;;;17.10;45.80;;;;;;5091879;28;20057;-65
2021/05/01 09:04:48;;;;;;;7.07;3.92;;;17.30;45.90;;;;;;5093692;28;20148;-65
2021/05/01 09:07:16;;;;;;;10.85;3.70;;;17.50;45.50;;;;;;5120030;28;20497;-65
2021/05/01 09:09:42;;;;;;;11.57;3.60;;;16.60;47.70;;;;;;5105054;27;20410;-66
2021/05/01 09:12:07;;;;;;;7.15;4.18;;;16.00;48.30;;;;;;5130350;27;20023;-65
2021/05/01 09:14:35;;;;;;;9.52;4.35;;;15.40;50.40;;;;;;5129238;28;20051;-65
2021/05/01 09:17:05;;;;;;;9.18;4.32;;;14.60;51.60;;;;;;5129670;28;20020;-65
2021/05/01 09:19:38;;;;;;;9.88;4.18;;;14.20;52.50;;;;;;5127747;28;20453;-65
2021/05/01 09:22:11;;;;;;;12.55;4.22;;;13.90;52.90;;;;;;5094309;28;20034;-65
2021/05/01 09:24:37;;;;;;;6.18;3.35;;;14.30;51.60;;;;;;5065703;28;20024;-65
2021/05/01 09:27:03;;;;;;;8.27;3.40;;;15.00;48.60;;;;;;5097024;28;20497;-64
2021/05/01 09:29:37;;;;;;;5.68;3.70;;;15.50;46.80;;;;;;5097962;28;20032;-64
2021/05/01 09:32:04;;;;;;;12.00;3.53;;;16.10;46.60;;;;;;5098856;28;20526;-64
2021/05/01 09:34:49;;;;;;;9.80;3.65;;;16.10;46.60;;;;;;5096808;28;20024;-65
2021/05/01 09:37:17;;;;;;;6.90;3.67;;;16.30;46.70;;;;;;5096503;28;20020;-65
2021/05/01 09:39:48;;;;;;;10.73;3.58;;;16.80;46.00;;;;;;5097730;28;20041;-64
2021/05/01 09:42:15;;;;;;;7.28;3.63;;;16.50;46.20;;;;;;5097609;28;20027;-64
2021/05/01 09:44:40;;;;;;;7.13;3.85;;;16.10;47.10;;;;;;5095496;28;20183;-64
2021/05/01 09:47:16;;;;;;;6.82;3.70;;;15.40;48.10;;;;;;5098369;28;20846;-65
2021/05/01 09:49:42;;;;;;;9.25;3.45;;;14.20;50.50;;;;;;5094442;28;20020;-65
2021/05/01 09:52:12;;;;;;;7.78;3.65;;;14.10;50.90;;;;;;5097302;28;20054;-64
2021/05/01 09:54:42;;;;;;;4.75;3.10;;;13.60;51.80;;;;;;5095371;28;20062;-64
2021/05/01 09:57:18;;;;;;;7.60;3.40;;;13.50;52.30;;;;;;5065159;28;20103;-64
2021/05/01 09:59:54;;;;;;;7.47;3.33;;;14.00;51.60;;;;;;5068624;28;20522;-66
2021/05/01 10:02:25;;;;;;;309.30;163.90;;;14.00;50.50;;;;;;5111308;28;20039;-62
2021/05/01 10:05:09;;;;;;;18.10;8.85;;;14.30;50.50;;;;;;5077312;28;20358;-66
2021/05/01 10:07:36;;;;;;;7.80;4.35;;;14.60;49.30;;;;;;5110029;28;20096;-66
2021/05/01 10:10:03;;;;;;;12.07;3.83;;;14.50;49.20;;;;;;5111326;28;20737;-65
2021/05/01 10:12:36;;;;;;;6.28;3.75;;;14.80;49.40;;;;;;5128580;28;20023;-65
2021/05/01 10:15:02;;;;;;;5.88;3.35;;;14.70;48.70;;;;;;5123385;28;20133;-66
2021/05/01 10:17:28;;;;;;;6.63;3.28;;;14.10;50.80;;;;;;5096540;28;20022;-66
2021/05/01 10:20:05;;;;;;;7.15;3.70;;;13.60;53.10;;;;;;5098996;28;20541;-67
2021/05/01 10:22:37;;;;;;;8.52;3.47;;;13.40;54.20;;;;;;5114619;27;20023;-66
2021/05/01 10:25:07;;;;;;;5.85;4.13;;;13.10;55.20;;;;;;5104680;28;20027;-66
2021/05/01 10:27:47;;;;;;;8.55;3.95;;;12.80;55.20;;;;;;5112202;28;20015;-67
2021/05/01 10:30:26;;;;;;;7.15;3.53;;;12.60;55.00;;;;;;5115378;27;20031;-65
2021/05/01 10:32:53;;;;;;;9.40;4.30;;;12.60;54.50;;;;;;5118863;27;20049;-65
2021/05/01 10:35:20;;;;;;;6.40;3.47;;;12.80;53.70;;;;;;5085923;27;20031;-66
2021/05/01 10:37:55;;;;;;;6.22;3.20;;;12.70;53.30;;;;;;5077087;27;20012;-65
2021/05/01 10:40:20;;;;;;;4.28;3.17;;;12.60;52.70;;;;;;5096236;27;20038;-66
2021/05/01 10:42:50;;;;;;;5.63;3.28;;;12.50;52.00;;;;;;5119823;27;20015;-64
2021/05/01 10:45:24;;;;;;;7.22;4.05;;;12.60;51.60;;;;;;5084801;27;20020;-64
2021/05/01 10:48:07;;;;;;;9.38;4.93;;;12.60;50.40;;;;;;5074229;28;20273;-65
2021/05/01 10:50:35;;;;;;;7.65;3.40;;;12.90;50.00;;;;;;5088755;28;20016;-65
2021/05/01 10:53:03;;;;;;;8.38;3.50;;;12.90;49.80;;;;;;5091881;28;20032;-65
2021/05/01 10:55:43;;;;;;;4.38;2.90;;;13.00;50.10;;;;;;5091394;28;20470;-65
2021/05/01 10:58:09;;;;;;;7.38;3.30;;;12.90;49.40;;;;;;5091590;28;20035;-64
2021/05/01 11:00:40;;;;;;;5.15;2.80;;;12.70;50.80;;;;;;5055998;28;20016;-64
2021/05/01 11:03:06;;;;;;;6.10;2.88;;;12.70;50.30;;;;;;5091739;28;20043;-65
2021/05/01 11:05:32;;;;;;;4.47;3.28;;;12.80;50.20;;;;;;5082706;27;20024;-65
2021/05/01 11:08:03;;;;;;;6.18;3.17;;;13.10;50.40;;;;;;5120894;27;20022;-64
2021/05/01 11:10:29;;;;;;;6.40;2.83;;;13.20;50.60;;;;;;5095960;28;20423;-65
2021/05/01 11:12:55;;;;;;;14.45;7.40;;;13.60;49.80;;;;;;5120917;27;20495;-64
2021/05/01 11:15:22;;;;;;;5.55;3.38;;;13.70;49.20;;;;;;5101901;27;20023;-65
2021/05/01 11:17:59;;;;;;;6.40;2.83;;;13.50;47.40;;;;;;5112870;27;20426;-65
2021/05/01 11:20:26;;;;;;;6.07;3.50;;;13.70;46.80;;;;;;5108854;28;20023;-65
2021/05/01 11:22:52;;;;;;;11.73;2.90;;;13.70;45.90;;;;;;5076210;28;20095;-65
2021/05/01 11:25:20;;;;;;;4.57;2.80;;;13.80;46.20;;;;;;5111594;28;20108;-65
2021/05/01 11:27:47;;;;;;;4.88;3.17;;;13.70;45.60;;;;;;5110899;28;20377;-65
2021/05/01 11:30:18;;;;;;;5.00;2.72;;;13.50;48.40;;;;;;5111629;28;20027;-64
2021/05/01 11:32:43;;;;;;;6.70;3.58;;;13.10;49.80;;;;;;5075535;28;20118;-66
2021/05/01 11:35:13;;;;;;;221.13;101.18;;;13.10;50.40;;;;;;5118878;27;20152;-67
2021/05/01 11:37:41;;;;;;;21.50;10.15;;;13.20;51.10;;;;;;5101694;27;20490;-66
2021/05/01 11:40:08;;;;;;;6.75;4.03;;;13.10;50.60;;;;;;5102084;27;20019;-67
2021/05/01 11:42:33;;;;;;;7.72;3.40;;;13.10;50.50;;;;;;5092703;28;20126;-67
2021/05/01 11:44:59;;;;;;;5.88;2.85;;;13.20;49.70;;;;;;5092535;28;20472;-67
2021/05/01 11:47:26;;;;;;;6.30;2.67;;;13.30;47.70;;;;;;5092855;28;20027;-67
2021/05/01 11:49:55;;;;;;;5.75;3.03;;;13.40;47.40;;;;;;5073149;28;20378;-64
2021/05/01 11:52:39;;;;;;;7.82;3.10;;;13.50;46.50;;;;;;5058675;28;20028;-65
2021/05/01 11:55:30;;;;;;;8.77;5.30;;;13.50;47.30;;;;;;5110254;28;20035;-65
2021/05/01 11:57:57;;;;;;;6.47;3.20;;;13.40;46.60;;;;;;5109973;28;20420;-65
2021/05/01 12:00:35;;;;;;;6.40;3.00;;;13.50;46.80;;;;;;5092531;28;20031;-65
2021/05/01 12:03:02;;;;;;;5.50;2.95;;;13.40;46.80;;;;;;5110301;28;20038;-66
2021/05/01 12:05:35;;;;;;;5.93;2.80;;;13.60;47.70;;;;;;5075400;28;20825;-66
2021/05/01 12:08:16;;;;;;;5.47;2.45;;;13.80;48.40;;;;;;5092672;28;20059;-67
2021/05/01 12:10:45;;;;;;;6.50;2.95;;;13.60;47.30;;;;;;5086594;28;20068;-66
2021/05/01 12:13:30;;;;;;;7.03;3.28;;;13.90;47.30;;;;;;5071764;28;20048;-68
2021/05/01 12:15:58;;;;;;;9.18;3.65;;;13.60;49.00;;;;;;5071474;28;20016;-68
2021/05/01 12:18:56;;;;;;;4.25;3.60;;;13.10;50.30;;;;;;5054684;28;20059;-67
2021/05/01 12:21:28;;;;;;;6.80;3.72;;;13.00;50.50;;;;;;5044337;28;20028;-68
2021/05/01 12:23:59;;;;;;;9.88;3.70;;;13.10;51.10;;;;;;5072046;28;20107;-67
2021/05/01 12:26:37;;;;;;;5.40;3.40;;;13.00;50.30;;;;;;5099971;27;20446;-66
2021/05/01 12:29:24;;;;;;;7.13;3.85;;;13.00;50.70;;;;;;5118646;27;20027;-68
2021/05/01 12:31:50;;;;;;;12.20;4.07;;;13.20;51.00;;;;;;5090199;28;20059;-68
2021/05/01 12:34:19;;;;;;;7.22;3.53;;;13.40;49.40;;;;;;5109626;28;20026;-66
2021/05/01 12:36:51;;;;;;;6.70;3.55;;;13.50;49.70;;;;;;5074388;28;20461;-66
2021/05/01 12:39:18;;;;;;;4.07;2.90;;;13.50;48.80;;;;;;5110117;28;20072;-67
2021/05/01 12:41:49;;;;;;;6.47;3.53;;;13.50;48.50;;;;;;5090989;28;20077;-66
2021/05/01 12:44:35;;;;;;;7.63;3.42;;;13.40;49.10;;;;;;5056060;28;20386;-65